sensor_id;sensor_type;location;lat;lon;timestamp;pressure;altitude;pressure_sealevel;temperature;humidity
47710;BME280;33473;51.640;5.892;2023-05-12T08:14:05;101500;;;23.1;47.0
47710;BME280;33473;51.640;5.892;2023-05-12T08:27:25;101500;;;23.3;46.0
47710;BME280;33473;51.640;5.892;2023-05-12T08:40:44;101600;;;23.5;45.0
47710;BME280;33473;51.640;5.892;2023-05-12T08:54:04;101600;;;23.3;46.0
47710;BME280;33473;51.640;5.892;2023-05-12T09:07:24;101600;;;23.6;46.0
47710;BME280;33473;51.640;5.892;2023-05-12T09:20:43;101600;;;23.8;44.0
47710;BME280;33473;51.640;5.892;2023-05-12T09:34:03;101600;;;23.6;44.0
47710;BME280;33473;51.640;5.892;2023-05-12T09:47:23;101600;;;24.1;43.0
47710;BME280;33473;51.640;5.892;2023-05-12T10:00:43;101600;;;24.2;40.0
47710;BME280;33473;51.640;5.892;2023-05-12T10:14:02;101600;;;24.5;41.0
47710;BME280;33473;51.640;5.892;2023-05-12T10:27:22;101600;;;24.6;40.0
47710;BME280;33473;51.640;5.892;2023-05-12T10:40:42;101600;;;24.4;41.0
47710;BME280;33473;51.640;5.892;2023-05-12T10:54:01;101600;;;24.6;40.0
47710;BME280;33473;51.640;5.892;2023-05-12T11:07:21;101600;;;26.3;36.0
47710;BME280;33473;51.640;5.892;2023-05-12T11:20:41;101600;;;26.9;35.0
47710;BME280;33473;51.640;5.892;2023-05-12T11:34:00;101600;;;27.9;36.0
47710;BME280;33473;51.640;5.892;2023-05-12T11:47:20;101600;;;28.3;35.0
47710;BME280;33473;51.640;5.892;2023-05-12T12:00:40;101600;;;28.1;35.0
47710;BME280;33473;51.640;5.892;2023-05-12T12:13:59;101600;;;27.5;33.0
47710;BME280;33473;51.640;5.892;2023-05-12T12:27:19;101600;;;27.4;38.0
47710;BME280;33473;51.640;5.892;2023-05-12T12:40:39;101600;;;27.3;32.0
47710;BME280;33473;51.640;5.892;2023-05-12T12:53:58;101700;;;27.5;33.0
47710;BME280;33473;51.640;5.892;2023-05-12T13:07:18;101600;;;28.3;33.0
47710;BME280;33473;51.640;5.892;2023-05-12T13:20:38;101700;;;29.0;32.0
47710;BME280;33473;51.640;5.892;2023-05-12T13:33:57;101600;;;28.8;32.0
47710;BME280;33473;51.640;5.892;2023-05-12T13:47:17;101600;;;29.6;31.0
47710;BME280;33473;51.640;5.892;2023-05-12T14:00:37;101700;;;29.2;31.0
47710;BME280;33473;51.640;5.892;2023-05-12T14:13:56;101600;;;29.6;29.0
47710;BME280;33473;51.640;5.892;2023-05-12T14:27:16;101600;;;28.6;31.0
47710;BME280;33473;51.640;5.892;2023-05-12T14:40:36;101600;;;29.6;29.0
47710;BME280;33473;51.640;5.892;2023-05-12T14:53:55;101600;;;30.1;30.0
47710;BME280;33473;51.640;5.892;2023-05-12T15:07:15;101600;;;30.2;30.0
47710;BME280;33473;51.640;5.892;2023-05-12T15:20:35;101600;;;30.4;27.0
47710;BME280;33473;51.640;5.892;2023-05-12T15:33:54;101700;;;28.5;29.0
47710;BME280;33473;51.640;5.892;2023-05-12T15:47:14;101800;;;25.4;40.0
47710;BME280;33473;51.640;5.892;2023-05-12T16:00:34;101700;;;23.9;43.0
47710;BME280;33473;51.640;5.892;2023-05-12T16:13:53;101700;;;22.7;46.0
47710;BME280;33473;51.640;5.892;2023-05-12T16:27:13;101700;;;22.3;51.0
47710;BME280;33473;51.640;5.892;2023-05-12T16:40:33;101700;;;22.2;51.0
47710;BME280;33473;51.640;5.892;2023-05-12T16:53:53;101700;;;21.9;53.0
47710;BME280;33473;51.640;5.892;2023-05-12T17:07:12;101700;;;21.6;52.0
47710;BME280;33473;51.640;5.892;2023-05-12T17:20:32;101700;;;21.6;53.0
47710;BME280;33473;51.640;5.892;2023-05-12T17:33:52;101800;;;21.5;53.0
47710;BME280;33473;51.640;5.892;2023-05-12T17:47:11;101700;;;21.5;54.0
47710;BME280;33473;51.640;5.892;2023-05-12T18:00:31;101700;;;21.6;55.0
47710;BME280;33473;51.640;5.892;2023-05-12T18:13:51;101700;;;21.7;55.0
47710;BME280;33473;51.640;5.892;2023-05-12T18:27:11;101700;;;21.7;55.0
47710;BME280;33473;51.640;5.892;2023-05-12T18:40:30;101800;;;21.6;55.0
47710;BME280;33473;51.640;5.892;2023-05-12T18:53:50;101700;;;21.5;54.0
47710;BME280;33473;51.640;5.892;2023-05-12T19:07:10;101800;;;21.4;54.0
47710;BME280;33473;51.640;5.892;2023-05-12T19:20:29;101800;;;21.2;54.0
47710;BME280;33473;51.640;5.892;2023-05-12T19:33:49;101800;;;21.0;53.0
47710;BME280;33473;51.640;5.892;2023-05-12T19:47:09;101800;;;20.7;53.0
47710;BME280;33473;51.640;5.892;2023-05-12T20:00:29;101800;;;20.5;54.0
47710;BME280;33473;51.640;5.892;2023-05-12T20:13:48;101800;;;20.3;54.0
47710;BME280;33473;51.640;5.892;2023-05-12T20:27:08;101800;;;20.3;55.0
47710;BME280;33473;51.640;5.892;2023-05-12T20:40:28;101800;;;20.4;54.0
47710;BME280;33473;51.640;5.892;2023-05-12T20:53:48;101800;;;20.4;54.0
47710;BME280;33473;51.640;5.892;2023-05-12T21:07:07;101800;;;20.2;54.0
47710;BME280;33473;51.640;5.892;2023-05-12T21:20:27;101900;;;20.0;54.0
47710;BME280;33473;51.640;5.892;2023-05-12T21:33:47;101900;;;19.8;53.0
47710;BME280;33473;51.640;5.892;2023-05-12T21:47:06;101900;;;19.7;53.0
47710;BME280;33473;51.640;5.892;2023-05-12T22:00:26;101900;;;19.5;52.0
47710;BME280;33473;51.640;5.892;2023-05-12T22:13:46;101900;;;19.3;52.0
47710;BME280;33473;51.640;5.892;2023-05-12T22:27:05;101900;;;19.3;52.0
47710;BME280;33473;51.640;5.892;2023-05-12T22:40:25;101900;;;19.3;52.0
47710;BME280;33473;51.640;5.892;2023-05-12T22:53:45;101900;;;19.3;52.0
47710;BME280;33473;51.640;5.892;2023-05-12T23:07:05;101900;;;19.3;51.0
47710;BME280;33473;51.640;5.892;2023-05-12T23:20:24;101900;;;19.3;51.0
47710;BME280;33473;51.640;5.892;2023-05-12T23:33:44;101900;;;19.5;50.0
47710;BME280;33473;51.640;5.892;2023-05-12T23:47:04;101900;;;19.4;50.0
